sensor_id;sensor_type;location;lat;lon;timestamp;P1;durP1;ratioP1;P2;durP2;ratioP2
4676;SDS011;2352;48.180;11.478;2022-10-19T00:02:34;5.77;;;5.27;;
4676;SDS011;2352;48.180;11.478;2022-10-19T00:05:37;5.77;;;5.37;;
4676;SDS011;2352;48.180;11.478;2022-10-19T00:08:41;5.13;;;4.73;;
4676;SDS011;2352;48.180;11.478;2022-10-19T00:11:46;7.40;;;5.77;;
4676;SDS011;2352;48.180;11.478;2022-10-19T00:14:50;6.17;;;5.10;;
4676;SDS011;2352;48.180;11.478;2022-10-19T00:17:53;5.90;;;5.17;;
4676;SDS011;2352;48.180;11.478;2022-10-19T00:21:01;5.50;;;5.00;;
4676;SDS011;2352;48.180;11.478;2022-10-19T00:24:07;6.23;;;5.53;;
4676;SDS011;2352;48.180;11.478;2022-10-19T00:27:10;6.60;;;6.10;;
4676;SDS011;2352;48.180;11.478;2022-10-19T00:30:13;6.73;;;6.23;;
4676;SDS011;2352;48.180;11.478;2022-10-19T00:33:16;7.83;;;7.13;;
4676;SDS011;2352;48.180;11.478;2022-10-19T00:36:22;7.70;;;6.70;;
4676;SDS011;2352;48.180;11.478;2022-10-19T00:39:28;8.23;;;6.83;;
4676;SDS011;2352;48.180;11.478;2022-10-19T00:42:31;5.80;;;5.27;;
4676;SDS011;2352;48.180;11.478;2022-10-19T00:45:34;6.23;;;5.50;;
4676;SDS011;2352;48.180;11.478;2022-10-19T00:48:37;5.20;;;4.73;;
4676;SDS011;2352;48.180;11.478;2022-10-19T00:51:41;7.23;;;6.07;;
4676;SDS011;2352;48.180;11.478;2022-10-19T00:54:49;6.17;;;5.43;;
4676;SDS011;2352;48.180;11.478;2022-10-19T00:57:53;6.17;;;5.20;;
4676;SDS011;2352;48.180;11.478;2022-10-19T01:00:57;7.23;;;5.83;;
4676;SDS011;2352;48.180;11.478;2022-10-19T01:04:02;7.20;;;6.33;;
4676;SDS011;2352;48.180;11.478;2022-10-19T01:07:06;6.37;;;5.87;;
4676;SDS011;2352;48.180;11.478;2022-10-19T01:10:11;6.27;;;5.87;;
4676;SDS011;2352;48.180;11.478;2022-10-19T01:13:18;6.13;;;5.53;;
4676;SDS011;2352;48.180;11.478;2022-10-19T01:16:31;8.50;;;5.47;;
4676;SDS011;2352;48.180;11.478;2022-10-19T01:19:53;9.13;;;5.67;;
4676;SDS011;2352;48.180;11.478;2022-10-19T01:23:23;4.83;;;4.43;;
4676;SDS011;2352;48.180;11.478;2022-10-19T01:26:51;4.70;;;4.40;;
4676;SDS011;2352;48.180;11.478;2022-10-19T01:30:16;5.73;;;5.23;;
4676;SDS011;2352;48.180;11.478;2022-10-19T01:33:30;5.27;;;4.83;;
4676;SDS011;2352;48.180;11.478;2022-10-19T01:36:41;5.90;;;5.40;;
4676;SDS011;2352;48.180;11.478;2022-10-19T01:39:51;6.83;;;5.23;;
4676;SDS011;2352;48.180;11.478;2022-10-19T01:43:00;5.83;;;5.40;;
4676;SDS011;2352;48.180;11.478;2022-10-19T01:46:10;5.63;;;5.23;;
4676;SDS011;2352;48.180;11.478;2022-10-19T01:49:19;7.40;;;6.80;;
4676;SDS011;2352;48.180;11.478;2022-10-19T01:52:29;6.90;;;6.30;;
4676;SDS011;2352;48.180;11.478;2022-10-19T01:55:35;7.53;;;6.87;;
4676;SDS011;2352;48.180;11.478;2022-10-19T01:58:42;8.07;;;7.23;;
4676;SDS011;2352;48.180;11.478;2022-10-19T02:01:48;8.17;;;7.57;;
4676;SDS011;2352;48.180;11.478;2022-10-19T02:04:54;8.77;;;8.00;;
4676;SDS011;2352;48.180;11.478;2022-10-19T02:07:59;7.93;;;7.33;;
4676;SDS011;2352;48.180;11.478;2022-10-19T02:11:05;7.60;;;6.90;;
4676;SDS011;2352;48.180;11.478;2022-10-19T02:14:08;7.97;;;7.37;;
4676;SDS011;2352;48.180;11.478;2022-10-19T02:17:16;9.10;;;8.40;;
4676;SDS011;2352;48.180;11.478;2022-10-19T02:20:23;8.80;;;7.67;;
4676;SDS011;2352;48.180;11.478;2022-10-19T02:23:27;9.87;;;9.00;;
4676;SDS011;2352;48.180;11.478;2022-10-19T02:26:30;9.47;;;8.60;;
4676;SDS011;2352;48.180;11.478;2022-10-19T02:29:33;10.50;;;9.50;;
4676;SDS011;2352;48.180;11.478;2022-10-19T02:32:38;9.47;;;8.87;;
4676;SDS011;2352;48.180;11.478;2022-10-19T02:35:42;9.43;;;8.73;;
4676;SDS011;2352;48.180;11.478;2022-10-19T02:38:45;9.73;;;8.93;;
4676;SDS011;2352;48.180;11.478;2022-10-19T02:41:50;9.87;;;9.07;;
4676;SDS011;2352;48.180;11.478;2022-10-19T02:44:58;9.57;;;8.87;;
4676;SDS011;2352;48.180;11.478;2022-10-19T02:48:10;9.57;;;8.63;;
4676;SDS011;2352;48.180;11.478;2022-10-19T02:51:27;9.33;;;8.27;;
4676;SDS011;2352;48.180;11.478;2022-10-19T02:54:31;10.50;;;9.50;;
4676;SDS011;2352;48.180;11.478;2022-10-19T02:57:34;9.50;;;8.60;;
4676;SDS011;2352;48.180;11.478;2022-10-19T03:00:37;11.13;;;10.33;;
4676;SDS011;2352;48.180;11.478;2022-10-19T03:03:42;11.37;;;10.67;;
4676;SDS011;2352;48.180;11.478;2022-10-19T03:06:45;10.33;;;9.63;;
4676;SDS011;2352;48.180;11.478;2022-10-19T03:09:48;9.67;;;8.87;;
4676;SDS011;2352;48.180;11.478;2022-10-19T03:12:51;10.63;;;9.93;;
4676;SDS011;2352;48.180;11.478;2022-10-19T03:15:54;9.97;;;9.27;;
4676;SDS011;2352;48.180;11.478;2022-10-19T03:18:59;11.13;;;10.27;;
4676;SDS011;2352;48.180;11.478;2022-10-19T03:22:02;11.73;;;10.83;;
4676;SDS011;2352;48.180;11.478;2022-10-19T03:25:05;10.33;;;9.63;;
4676;SDS011;2352;48.180;11.478;2022-10-19T03:28:08;11.90;;;10.90;;
4676;SDS011;2352;48.180;11.478;2022-10-19T03:31:11;11.60;;;10.57;;
4676;SDS011;2352;48.180;11.478;2022-10-19T03:34:15;11.00;;;10.30;;
4676;SDS011;2352;48.180;11.478;2022-10-19T03:37:18;12.07;;;11.27;;
4676;SDS011;2352;48.180;11.478;2022-10-19T03:40:21;12.13;;;11.03;;
4676;SDS011;2352;48.180;11.478;2022-10-19T03:43:24;12.93;;;11.27;;
4676;SDS011;2352;48.180;11.478;2022-10-19T03:46:27;11.97;;;11.07;;
4676;SDS011;2352;48.180;11.478;2022-10-19T03:49:32;11.80;;;10.83;;
4676;SDS011;2352;48.180;11.478;2022-10-19T03:52:39;12.47;;;11.33;;
4676;SDS011;2352;48.180;11.478;2022-10-19T03:55:42;13.03;;;12.03;;
4676;SDS011;2352;48.180;11.478;2022-10-19T03:58:45;12.80;;;11.80;;
4676;SDS011;2352;48.180;11.478;2022-10-19T04:01:49;12.10;;;11.07;;
4676;SDS011;2352;48.180;11.478;2022-10-19T04:04:54;12.07;;;11.17;;
4676;SDS011;2352;48.180;11.478;2022-10-19T04:07:57;13.80;;;12.40;;
4676;SDS011;2352;48.180;11.478;2022-10-19T04:11:00;13.70;;;12.60;;
4676;SDS011;2352;48.180;11.478;2022-10-19T04:14:03;13.83;;;12.93;;
4676;SDS011;2352;48.180;11.478;2022-10-19T04:17:07;15.17;;;11.67;;
4676;SDS011;2352;48.180;11.478;2022-10-19T04:20:13;12.67;;;11.57;;
4676;SDS011;2352;48.180;11.478;2022-10-19T04:23:16;13.27;;;12.10;;
4676;SDS011;2352;48.180;11.478;2022-10-19T04:26:19;12.53;;;11.53;;
4676;SDS011;2352;48.180;11.478;2022-10-19T04:29:23;12.37;;;11.57;;
4676;SDS011;2352;48.180;11.478;2022-10-19T04:32:31;12.87;;;11.87;;
4676;SDS011;2352;48.180;11.478;2022-10-19T04:35:35;12.50;;;11.60;;
4676;SDS011;2352;48.180;11.478;2022-10-19T04:38:38;11.80;;;10.90;;
4676;SDS011;2352;48.180;11.478;2022-10-19T04:41:41;11.03;;;10.33;;
4676;SDS011;2352;48.180;11.478;2022-10-19T04:44:44;12.17;;;11.27;;
4676;SDS011;2352;48.180;11.478;2022-10-19T04:47:47;12.07;;;11.17;;
4676;SDS011;2352;48.180;11.478;2022-10-19T04:50:54;11.37;;;10.67;;
4676;SDS011;2352;48.180;11.478;2022-10-19T04:53:57;13.50;;;12.37;;
4676;SDS011;2352;48.180;11.478;2022-10-19T04:57:00;12.77;;;11.80;;
4676;SDS011;2352;48.180;11.478;2022-10-19T05:00:03;13.00;;;12.10;;
4676;SDS011;2352;48.180;11.478;2022-10-19T05:03:07;12.87;;;11.93;;
4676;SDS011;2352;48.180;11.478;2022-10-19T05:06:12;12.93;;;12.00;;
4676;SDS011;2352;48.180;11.478;2022-10-19T05:09:16;12.53;;;11.63;;
4676;SDS011;2352;48.180;11.478;2022-10-19T05:12:19;12.57;;;11.30;;
4676;SDS011;2352;48.180;11.478;2022-10-19T05:15:22;13.50;;;12.50;;
4676;SDS011;2352;48.180;11.478;2022-10-19T05:18:25;11.70;;;10.70;;
4676;SDS011;2352;48.180;11.478;2022-10-19T05:21:29;11.10;;;10.10;;
4676;SDS011;2352;48.180;11.478;2022-10-19T05:24:32;11.27;;;10.47;;
4676;SDS011;2352;48.180;11.478;2022-10-19T05:27:35;13.53;;;12.53;;
4676;SDS011;2352;48.180;11.478;2022-10-19T05:30:38;12.57;;;11.77;;
4676;SDS011;2352;48.180;11.478;2022-10-19T05:33:46;10.03;;;9.30;;
4676;SDS011;2352;48.180;11.478;2022-10-19T05:36:51;11.40;;;10.53;;
4676;SDS011;2352;48.180;11.478;2022-10-19T05:39:56;12.27;;;11.27;;
4676;SDS011;2352;48.180;11.478;2022-10-19T05:43:00;12.60;;;11.27;;
4676;SDS011;2352;48.180;11.478;2022-10-19T05:46:03;11.17;;;10.37;;
4676;SDS011;2352;48.180;11.478;2022-10-19T05:49:08;12.80;;;11.80;;
4676;SDS011;2352;48.180;11.478;2022-10-19T05:52:13;12.47;;;11.60;;
4676;SDS011;2352;48.180;11.478;2022-10-19T05:55:17;13.93;;;12.93;;
4676;SDS011;2352;48.180;11.478;2022-10-19T05:58:20;14.17;;;12.93;;
4676;SDS011;2352;48.180;11.478;2022-10-19T06:01:24;13.13;;;12.13;;
4676;SDS011;2352;48.180;11.478;2022-10-19T06:04:27;12.83;;;11.93;;
4676;SDS011;2352;48.180;11.478;2022-10-19T06:07:31;13.37;;;12.37;;
4676;SDS011;2352;48.180;11.478;2022-10-19T06:10:35;12.70;;;11.87;;
4676;SDS011;2352;48.180;11.478;2022-10-19T06:13:38;13.33;;;12.27;;
4676;SDS011;2352;48.180;11.478;2022-10-19T06:16:42;14.70;;;13.07;;
4676;SDS011;2352;48.180;11.478;2022-10-19T06:19:46;13.23;;;12.13;;
4676;SDS011;2352;48.180;11.478;2022-10-19T06:22:50;13.53;;;12.23;;
4676;SDS011;2352;48.180;11.478;2022-10-19T06:25:53;11.40;;;10.70;;
4676;SDS011;2352;48.180;11.478;2022-10-19T06:28:58;11.97;;;11.07;;
4676;SDS011;2352;48.180;11.478;2022-10-19T06:32:02;14.33;;;13.33;;
4676;SDS011;2352;48.180;11.478;2022-10-19T06:35:06;11.87;;;11.03;;
4676;SDS011;2352;48.180;11.478;2022-10-19T06:38:10;11.43;;;10.63;;
4676;SDS011;2352;48.180;11.478;2022-10-19T06:41:14;12.60;;;11.77;;
4676;SDS011;2352;48.180;11.478;2022-10-19T06:44:17;14.83;;;13.63;;
4676;SDS011;2352;48.180;11.478;2022-10-19T06:47:21;12.70;;;11.63;;
4676;SDS011;2352;48.180;11.478;2022-10-19T06:50:28;12.43;;;11.43;;
4676;SDS011;2352;48.180;11.478;2022-10-19T06:53:33;12.23;;;11.33;;
4676;SDS011;2352;48.180;11.478;2022-10-19T06:56:37;13.27;;;12.07;;
4676;SDS011;2352;48.180;11.478;2022-10-19T06:59:40;13.50;;;12.37;;
4676;SDS011;2352;48.180;11.478;2022-10-19T07:02:43;14.10;;;12.87;;
4676;SDS011;2352;48.180;11.478;2022-10-19T07:05:51;12.97;;;12.07;;
4676;SDS011;2352;48.180;11.478;2022-10-19T07:08:56;11.93;;;11.10;;
4676;SDS011;2352;48.180;11.478;2022-10-19T07:11:59;13.20;;;12.23;;
4676;SDS011;2352;48.180;11.478;2022-10-19T07:15:02;12.00;;;11.20;;
4676;SDS011;2352;48.180;11.478;2022-10-19T07:18:05;13.90;;;12.73;;
4676;SDS011;2352;48.180;11.478;2022-10-19T07:21:09;13.30;;;11.93;;
4676;SDS011;2352;48.180;11.478;2022-10-19T07:24:15;15.80;;;14.30;;
4676;SDS011;2352;48.180;11.478;2022-10-19T07:27:18;15.70;;;14.30;;
4676;SDS011;2352;48.180;11.478;2022-10-19T07:30:21;14.23;;;13.07;;
4676;SDS011;2352;48.180;11.478;2022-10-19T07:33:25;17.07;;;15.27;;
4676;SDS011;2352;48.180;11.478;2022-10-19T07:36:28;17.50;;;14.33;;
4676;SDS011;2352;48.180;11.478;2022-10-19T07:39:35;18.73;;;17.00;;
4676;SDS011;2352;48.180;11.478;2022-10-19T07:42:38;15.77;;;14.33;;
4676;SDS011;2352;48.180;11.478;2022-10-19T07:45:43;16.83;;;15.27;;
4676;SDS011;2352;48.180;11.478;2022-10-19T07:48:46;17.57;;;15.90;;
4676;SDS011;2352;48.180;11.478;2022-10-19T07:51:51;16.93;;;14.60;;
4676;SDS011;2352;48.180;11.478;2022-10-19T07:54:56;18.07;;;15.83;;
4676;SDS011;2352;48.180;11.478;2022-10-19T07:58:01;18.37;;;16.30;;
4676;SDS011;2352;48.180;11.478;2022-10-19T08:01:04;17.03;;;15.63;;
4676;SDS011;2352;48.180;11.478;2022-10-19T08:04:11;15.90;;;14.50;;
4676;SDS011;2352;48.180;11.478;2022-10-19T08:07:34;15.30;;;14.00;;
4676;SDS011;2352;48.180;11.478;2022-10-19T08:10:38;16.43;;;15.10;;
4676;SDS011;2352;48.180;11.478;2022-10-19T08:13:41;15.77;;;14.33;;
4676;SDS011;2352;48.180;11.478;2022-10-19T08:16:45;16.27;;;14.83;;
4676;SDS011;2352;48.180;11.478;2022-10-19T08:19:48;17.30;;;15.60;;
4676;SDS011;2352;48.180;11.478;2022-10-19T08:22:54;17.50;;;15.80;;
4676;SDS011;2352;48.180;11.478;2022-10-19T08:26:00;17.93;;;16.03;;
4676;SDS011;2352;48.180;11.478;2022-10-19T08:29:04;15.93;;;14.27;;
4676;SDS011;2352;48.180;11.478;2022-10-19T08:32:08;16.37;;;14.70;;
4676;SDS011;2352;48.180;11.478;2022-10-19T08:35:11;16.57;;;15.10;;
4676;SDS011;2352;48.180;11.478;2022-10-19T08:38:14;16.77;;;15.37;;
4676;SDS011;2352;48.180;11.478;2022-10-19T08:41:21;17.40;;;15.67;;
4676;SDS011;2352;48.180;11.478;2022-10-19T08:44:36;16.83;;;15.53;;
4676;SDS011;2352;48.180;11.478;2022-10-19T08:47:57;17.27;;;15.67;;
4676;SDS011;2352;48.180;11.478;2022-10-19T08:51:05;16.37;;;14.93;;
4676;SDS011;2352;48.180;11.478;2022-10-19T08:54:12;14.53;;;13.43;;
4676;SDS011;2352;48.180;11.478;2022-10-19T08:57:27;16.47;;;14.97;;
4676;SDS011;2352;48.180;11.478;2022-10-19T09:00:39;16.03;;;14.57;;
4676;SDS011;2352;48.180;11.478;2022-10-19T09:03:45;15.67;;;14.13;;
4676;SDS011;2352;48.180;11.478;2022-10-19T09:07:03;15.60;;;14.17;;
4676;SDS011;2352;48.180;11.478;2022-10-19T09:10:24;15.97;;;14.67;;
4676;SDS011;2352;48.180;11.478;2022-10-19T09:13:33;18.57;;;16.50;;
4676;SDS011;2352;48.180;11.478;2022-10-19T09:17:04;18.63;;;16.73;;
4676;SDS011;2352;48.180;11.478;2022-10-19T09:20:15;17.60;;;16.10;;
4676;SDS011;2352;48.180;11.478;2022-10-19T09:23:20;18.17;;;16.33;;
4676;SDS011;2352;48.180;11.478;2022-10-19T09:26:30;17.43;;;15.93;;
4676;SDS011;2352;48.180;11.478;2022-10-19T09:29:41;19.77;;;17.77;;
4676;SDS011;2352;48.180;11.478;2022-10-19T09:32:50;18.03;;;16.43;;
4676;SDS011;2352;48.180;11.478;2022-10-19T09:36:04;18.53;;;16.67;;
4676;SDS011;2352;48.180;11.478;2022-10-19T09:39:12;17.93;;;16.07;;
4676;SDS011;2352;48.180;11.478;2022-10-19T09:42:17;19.97;;;17.83;;
4676;SDS011;2352;48.180;11.478;2022-10-19T09:45:28;18.50;;;16.73;;
4676;SDS011;2352;48.180;11.478;2022-10-19T09:48:37;15.80;;;14.40;;
4676;SDS011;2352;48.180;11.478;2022-10-19T09:51:48;15.10;;;13.80;;
4676;SDS011;2352;48.180;11.478;2022-10-19T09:54:58;12.83;;;11.83;;
4676;SDS011;2352;48.180;11.478;2022-10-19T09:58:04;13.17;;;12.10;;
4676;SDS011;2352;48.180;11.478;2022-10-19T10:01:31;14.93;;;13.57;;
4676;SDS011;2352;48.180;11.478;2022-10-19T10:04:46;12.07;;;11.17;;
4676;SDS011;2352;48.180;11.478;2022-10-19T10:07:56;12.40;;;11.20;;
4676;SDS011;2352;48.180;11.478;2022-10-19T10:11:03;11.33;;;10.53;;
4676;SDS011;2352;48.180;11.478;2022-10-19T10:14:12;12.30;;;11.20;;
4676;SDS011;2352;48.180;11.478;2022-10-19T10:17:24;12.93;;;11.73;;
4676;SDS011;2352;48.180;11.478;2022-10-19T10:20:31;12.33;;;11.20;;
4676;SDS011;2352;48.180;11.478;2022-10-19T10:23:34;12.23;;;11.33;;
4676;SDS011;2352;48.180;11.478;2022-10-19T10:26:38;10.30;;;9.40;;
4676;SDS011;2352;48.180;11.478;2022-10-19T10:29:50;11.90;;;10.73;;
4676;SDS011;2352;48.180;11.478;2022-10-19T10:33:02;10.23;;;9.43;;
4676;SDS011;2352;48.180;11.478;2022-10-19T10:36:22;10.43;;;9.53;;
4676;SDS011;2352;48.180;11.478;2022-10-19T10:39:26;8.53;;;7.83;;
4676;SDS011;2352;48.180;11.478;2022-10-19T10:42:33;9.90;;;9.10;;
4676;SDS011;2352;48.180;11.478;2022-10-19T10:45:38;8.87;;;8.07;;
4676;SDS011;2352;48.180;11.478;2022-10-19T10:48:50;7.93;;;7.23;;
4676;SDS011;2352;48.180;11.478;2022-10-19T10:51:58;8.20;;;7.50;;
4676;SDS011;2352;48.180;11.478;2022-10-19T10:55:14;8.90;;;8.20;;
4676;SDS011;2352;48.180;11.478;2022-10-19T10:58:20;9.17;;;8.30;;
4676;SDS011;2352;48.180;11.478;2022-10-19T11:01:34;7.57;;;7.07;;
4676;SDS011;2352;48.180;11.478;2022-10-19T11:04:43;7.30;;;6.67;;
4676;SDS011;2352;48.180;11.478;2022-10-19T11:07:53;7.17;;;6.67;;
4676;SDS011;2352;48.180;11.478;2022-10-19T11:11:00;7.77;;;7.27;;
4676;SDS011;2352;48.180;11.478;2022-10-19T11:14:21;7.87;;;7.27;;
4676;SDS011;2352;48.180;11.478;2022-10-19T11:17:32;6.30;;;5.90;;
4676;SDS011;2352;48.180;11.478;2022-10-19T11:20:41;4.87;;;4.57;;
4676;SDS011;2352;48.180;11.478;2022-10-19T11:23:54;4.77;;;4.47;;
4676;SDS011;2352;48.180;11.478;2022-10-19T11:27:12;4.60;;;3.90;;
4676;SDS011;2352;48.180;11.478;2022-10-19T11:30:22;4.70;;;4.40;;
4676;SDS011;2352;48.180;11.478;2022-10-19T11:33:31;4.17;;;3.87;;
4676;SDS011;2352;48.180;11.478;2022-10-19T11:36:52;4.60;;;4.33;;
4676;SDS011;2352;48.180;11.478;2022-10-19T11:40:05;3.70;;;3.50;;
4676;SDS011;2352;48.180;11.478;2022-10-19T11:43:23;4.80;;;4.50;;
4676;SDS011;2352;48.180;11.478;2022-10-19T11:46:34;4.53;;;4.23;;
4676;SDS011;2352;48.180;11.478;2022-10-19T11:49:48;5.97;;;3.77;;
4676;SDS011;2352;48.180;11.478;2022-10-19T11:53:02;4.20;;;3.90;;
4676;SDS011;2352;48.180;11.478;2022-10-19T11:56:14;4.13;;;3.73;;
4676;SDS011;2352;48.180;11.478;2022-10-19T11:59:23;4.47;;;4.17;;
4676;SDS011;2352;48.180;11.478;2022-10-19T12:02:46;4.40;;;4.10;;
4676;SDS011;2352;48.180;11.478;2022-10-19T12:06:15;4.40;;;4.10;;
4676;SDS011;2352;48.180;11.478;2022-10-19T12:09:29;4.67;;;4.37;;
4676;SDS011;2352;48.180;11.478;2022-10-19T12:12:41;5.40;;;4.90;;
4676;SDS011;2352;48.180;11.478;2022-10-19T12:15:48;4.00;;;3.80;;
4676;SDS011;2352;48.180;11.478;2022-10-19T12:18:54;5.13;;;4.83;;
4676;SDS011;2352;48.180;11.478;2022-10-19T12:22:02;3.37;;;3.17;;
4676;SDS011;2352;48.180;11.478;2022-10-19T12:25:11;4.57;;;4.27;;
4676;SDS011;2352;48.180;11.478;2022-10-19T12:28:17;4.07;;;3.87;;
4676;SDS011;2352;48.180;11.478;2022-10-19T12:31:26;3.83;;;3.47;;
4676;SDS011;2352;48.180;11.478;2022-10-19T12:34:33;4.60;;;4.30;;
4676;SDS011;2352;48.180;11.478;2022-10-19T12:37:43;4.37;;;4.07;;
4676;SDS011;2352;48.180;11.478;2022-10-19T12:40:57;4.53;;;4.23;;
4676;SDS011;2352;48.180;11.478;2022-10-19T12:44:08;4.47;;;4.07;;
4676;SDS011;2352;48.180;11.478;2022-10-19T12:47:21;4.73;;;4.40;;
4676;SDS011;2352;48.180;11.478;2022-10-19T12:54:06;3.60;;;3.40;;
4676;SDS011;2352;48.180;11.478;2022-10-19T12:57:22;3.73;;;3.53;;
4676;SDS011;2352;48.180;11.478;2022-10-19T13:00:30;5.20;;;3.57;;
4676;SDS011;2352;48.180;11.478;2022-10-19T13:03:35;6.17;;;3.90;;
4676;SDS011;2352;48.180;11.478;2022-10-19T13:06:41;4.03;;;3.47;;
4676;SDS011;2352;48.180;11.478;2022-10-19T13:09:46;5.05;;;3.03;;
4676;SDS011;2352;48.180;11.478;2022-10-19T13:12:52;2.80;;;2.20;;
4676;SDS011;2352;48.180;11.478;2022-10-19T13:15:56;2.33;;;2.22;;
4676;SDS011;2352;48.180;11.478;2022-10-19T13:19:00;2.37;;;2.27;;
4676;SDS011;2352;48.180;11.478;2022-10-19T13:25:29;2.28;;;2.17;;
4676;SDS011;2352;48.180;11.478;2022-10-19T13:28:37;6.72;;;2.92;;
4676;SDS011;2352;48.180;11.478;2022-10-19T13:31:41;4.00;;;3.72;;
4676;SDS011;2352;48.180;11.478;2022-10-19T13:34:44;6.63;;;2.95;;
4676;SDS011;2352;48.180;11.478;2022-10-19T13:38:01;3.38;;;3.15;;
4676;SDS011;2352;48.180;11.478;2022-10-19T13:41:16;3.65;;;3.35;;
4676;SDS011;2352;48.180;11.478;2022-10-19T13:44:24;3.28;;;3.08;;
4676;SDS011;2352;48.180;11.478;2022-10-19T13:47:35;4.13;;;3.88;;
4676;SDS011;2352;48.180;11.478;2022-10-19T13:50:40;3.58;;;3.28;;
4676;SDS011;2352;48.180;11.478;2022-10-19T13:53:45;4.03;;;3.67;;
4676;SDS011;2352;48.180;11.478;2022-10-19T13:57:00;4.63;;;4.28;;
4676;SDS011;2352;48.180;11.478;2022-10-19T14:00:13;4.55;;;4.22;;
4676;SDS011;2352;48.180;11.478;2022-10-19T14:03:19;4.40;;;3.97;;
4676;SDS011;2352;48.180;11.478;2022-10-19T14:06:35;4.13;;;3.83;;
4676;SDS011;2352;48.180;11.478;2022-10-19T14:09:51;4.53;;;4.22;;
4676;SDS011;2352;48.180;11.478;2022-10-19T14:13:04;4.75;;;4.38;;
4676;SDS011;2352;48.180;11.478;2022-10-19T14:16:18;5.10;;;4.53;;
4676;SDS011;2352;48.180;11.478;2022-10-19T14:19:24;4.90;;;4.60;;
4676;SDS011;2352;48.180;11.478;2022-10-19T14:22:30;5.93;;;5.38;;
4676;SDS011;2352;48.180;11.478;2022-10-19T14:25:34;4.60;;;4.30;;
4676;SDS011;2352;48.180;11.478;2022-10-19T14:28:38;5.05;;;4.72;;
4676;SDS011;2352;48.180;11.478;2022-10-19T14:31:44;5.35;;;5.05;;
4676;SDS011;2352;48.180;11.478;2022-10-19T14:34:47;5.05;;;4.65;;
4676;SDS011;2352;48.180;11.478;2022-10-19T14:37:50;5.35;;;4.95;;
4676;SDS011;2352;48.180;11.478;2022-10-19T14:40:54;5.15;;;4.78;;
4676;SDS011;2352;48.180;11.478;2022-10-19T14:43:57;4.82;;;4.45;;
4676;SDS011;2352;48.180;11.478;2022-10-19T14:47:08;5.38;;;4.75;;
4676;SDS011;2352;48.180;11.478;2022-10-19T14:50:20;5.03;;;4.72;;
4676;SDS011;2352;48.180;11.478;2022-10-19T14:53:30;5.50;;;5.10;;
4676;SDS011;2352;48.180;11.478;2022-10-19T14:56:38;5.13;;;4.70;;
4676;SDS011;2352;48.180;11.478;2022-10-19T14:59:48;5.38;;;5.07;;
4676;SDS011;2352;48.180;11.478;2022-10-19T15:02:56;4.10;;;3.90;;
4676;SDS011;2352;48.180;11.478;2022-10-19T15:06:02;4.50;;;4.20;;
4676;SDS011;2352;48.180;11.478;2022-10-19T15:09:07;5.15;;;4.75;;
4676;SDS011;2352;48.180;11.478;2022-10-19T15:12:38;6.63;;;4.90;;
4676;SDS011;2352;48.180;11.478;2022-10-19T15:15:43;5.13;;;4.72;;
4676;SDS011;2352;48.180;11.478;2022-10-19T15:18:47;5.60;;;5.13;;
4676;SDS011;2352;48.180;11.478;2022-10-19T15:22:05;4.87;;;4.37;;
4676;SDS011;2352;48.180;11.478;2022-10-19T15:25:24;5.00;;;4.60;;
4676;SDS011;2352;48.180;11.478;2022-10-19T15:28:31;4.13;;;3.83;;
4676;SDS011;2352;48.180;11.478;2022-10-19T15:31:41;4.68;;;4.38;;
4676;SDS011;2352;48.180;11.478;2022-10-19T15:34:45;5.13;;;4.75;;
4676;SDS011;2352;48.180;11.478;2022-10-19T15:37:49;4.13;;;3.72;;
4676;SDS011;2352;48.180;11.478;2022-10-19T15:40:54;3.65;;;3.45;;
4676;SDS011;2352;48.180;11.478;2022-10-19T15:43:59;3.92;;;3.63;;
4676;SDS011;2352;48.180;11.478;2022-10-19T15:47:18;4.93;;;4.63;;
4676;SDS011;2352;48.180;11.478;2022-10-19T15:50:30;6.07;;;4.47;;
4676;SDS011;2352;48.180;11.478;2022-10-19T15:53:38;4.00;;;3.70;;
4676;SDS011;2352;48.180;11.478;2022-10-19T15:56:41;4.72;;;4.38;;
4676;SDS011;2352;48.180;11.478;2022-10-19T15:59:45;4.30;;;4.03;;
4676;SDS011;2352;48.180;11.478;2022-10-19T16:02:49;5.73;;;3.07;;
4676;SDS011;2352;48.180;11.478;2022-10-19T16:05:53;3.90;;;3.60;;
4676;SDS011;2352;48.180;11.478;2022-10-19T16:08:56;4.20;;;3.43;;
4676;SDS011;2352;48.180;11.478;2022-10-19T16:12:00;5.50;;;3.53;;
4676;SDS011;2352;48.180;11.478;2022-10-19T16:15:04;3.67;;;3.00;;
4676;SDS011;2352;48.180;11.478;2022-10-19T16:18:08;3.00;;;2.80;;
4676;SDS011;2352;48.180;11.478;2022-10-19T16:21:14;3.43;;;3.13;;
4676;SDS011;2352;48.180;11.478;2022-10-19T16:24:17;3.57;;;3.37;;
4676;SDS011;2352;48.180;11.478;2022-10-19T16:27:20;3.80;;;3.50;;
4676;SDS011;2352;48.180;11.478;2022-10-19T16:30:23;12.77;;;3.37;;
4676;SDS011;2352;48.180;11.478;2022-10-19T16:33:26;3.37;;;3.17;;
4676;SDS011;2352;48.180;11.478;2022-10-19T16:36:30;4.13;;;3.83;;
4676;SDS011;2352;48.180;11.478;2022-10-19T16:39:33;4.03;;;3.73;;
4676;SDS011;2352;48.180;11.478;2022-10-19T16:42:36;2.60;;;2.40;;
4676;SDS011;2352;48.180;11.478;2022-10-19T16:45:40;4.00;;;3.60;;
4676;SDS011;2352;48.180;11.478;2022-10-19T16:48:44;4.23;;;3.83;;
4676;SDS011;2352;48.180;11.478;2022-10-19T16:51:48;4.50;;;4.20;;
4676;SDS011;2352;48.180;11.478;2022-10-19T16:54:57;5.97;;;5.57;;
4676;SDS011;2352;48.180;11.478;2022-10-19T16:58:00;9.37;;;8.67;;
4676;SDS011;2352;48.180;11.478;2022-10-19T17:01:05;4.23;;;3.93;;
4676;SDS011;2352;48.180;11.478;2022-10-19T17:04:08;3.73;;;3.43;;
4676;SDS011;2352;48.180;11.478;2022-10-19T17:07:13;4.27;;;3.97;;
4676;SDS011;2352;48.180;11.478;2022-10-19T17:10:17;3.30;;;3.10;;
4676;SDS011;2352;48.180;11.478;2022-10-19T17:13:20;3.70;;;3.50;;
4676;SDS011;2352;48.180;11.478;2022-10-19T17:16:24;5.00;;;4.60;;
4676;SDS011;2352;48.180;11.478;2022-10-19T17:19:28;4.67;;;3.97;;
4676;SDS011;2352;48.180;11.478;2022-10-19T17:22:32;4.10;;;3.63;;
4676;SDS011;2352;48.180;11.478;2022-10-19T17:25:36;4.23;;;4.00;;
4676;SDS011;2352;48.180;11.478;2022-10-19T17:28:47;6.60;;;4.43;;
4676;SDS011;2352;48.180;11.478;2022-10-19T17:31:50;4.17;;;3.83;;
4676;SDS011;2352;48.180;11.478;2022-10-19T17:34:53;5.03;;;4.13;;
4676;SDS011;2352;48.180;11.478;2022-10-19T17:37:57;3.90;;;3.60;;
4676;SDS011;2352;48.180;11.478;2022-10-19T17:41:01;4.17;;;3.87;;
4676;SDS011;2352;48.180;11.478;2022-10-19T17:44:06;4.40;;;4.00;;
4676;SDS011;2352;48.180;11.478;2022-10-19T17:47:09;4.17;;;3.87;;
4676;SDS011;2352;48.180;11.478;2022-10-19T17:50:12;4.37;;;4.07;;
4676;SDS011;2352;48.180;11.478;2022-10-19T17:53:16;5.23;;;4.83;;
4676;SDS011;2352;48.180;11.478;2022-10-19T17:56:20;5.17;;;4.87;;
4676;SDS011;2352;48.180;11.478;2022-10-19T17:59:23;5.23;;;4.73;;
4676;SDS011;2352;48.180;11.478;2022-10-19T18:02:35;5.20;;;4.83;;
4676;SDS011;2352;48.180;11.478;2022-10-19T18:05:38;5.60;;;5.10;;
4676;SDS011;2352;48.180;11.478;2022-10-19T18:08:44;6.33;;;5.93;;
4676;SDS011;2352;48.180;11.478;2022-10-19T18:11:48;5.70;;;5.30;;
4676;SDS011;2352;48.180;11.478;2022-10-19T18:14:51;5.33;;;4.93;;
4676;SDS011;2352;48.180;11.478;2022-10-19T18:17:54;5.17;;;4.73;;
4676;SDS011;2352;48.180;11.478;2022-10-19T18:20:57;5.80;;;5.40;;
4676;SDS011;2352;48.180;11.478;2022-10-19T18:24:02;5.40;;;5.00;;
4676;SDS011;2352;48.180;11.478;2022-10-19T18:27:05;5.93;;;5.10;;
4676;SDS011;2352;48.180;11.478;2022-10-19T18:30:09;4.93;;;4.63;;
4676;SDS011;2352;48.180;11.478;2022-10-19T18:33:12;5.70;;;5.30;;
4676;SDS011;2352;48.180;11.478;2022-10-19T18:36:15;5.90;;;5.40;;
4676;SDS011;2352;48.180;11.478;2022-10-19T18:39:19;5.93;;;5.33;;
4676;SDS011;2352;48.180;11.478;2022-10-19T18:42:22;5.87;;;5.47;;
4676;SDS011;2352;48.180;11.478;2022-10-19T18:45:25;5.60;;;5.20;;
4676;SDS011;2352;48.180;11.478;2022-10-19T18:48:28;5.80;;;5.37;;
4676;SDS011;2352;48.180;11.478;2022-10-19T18:51:32;5.73;;;5.33;;
4676;SDS011;2352;48.180;11.478;2022-10-19T18:54:36;6.33;;;5.83;;
4676;SDS011;2352;48.180;11.478;2022-10-19T18:57:39;6.10;;;5.60;;